createdAt,value
2023-05-29T00:00:39.855Z,101162.66
2023-05-29T00:03:25.089Z,101160.85
2023-05-29T00:05:54.086Z,101157.98
2023-05-29T00:08:22.918Z,101152.64
2023-05-29T00:10:51.503Z,101154.23
2023-05-29T00:13:19.792Z,101147.61
2023-05-29T00:15:48.785Z,101152.83
2023-05-29T00:18:17.156Z,101153.66
2023-05-29T00:20:45.987Z,101154.05
2023-05-29T00:23:14.343Z,101154.48
2023-05-29T00:25:42.821Z,101158.24
2023-05-29T00:28:13.248Z,101159.08
2023-05-29T00:30:41.485Z,101160.30
2023-05-29T00:33:09.751Z,101158.67
2023-05-29T00:35:38.017Z,101154.46
2023-05-29T00:38:06.316Z,101151.45
2023-05-29T00:40:34.867Z,101150.98
2023-05-29T00:43:04.037Z,101152.66
2023-05-29T00:45:41.804Z,101151.73
2023-05-29T00:48:11.545Z,101153.27
2023-05-29T00:50:40.185Z,101155.45
2023-05-29T00:53:09.010Z,101157.48
2023-05-29T00:55:37.668Z,101162.41
2023-05-29T00:58:07.825Z,101164.92
2023-05-29T01:00:40.109Z,101164.92
2023-05-29T01:03:09.457Z,101162.09
2023-05-29T01:05:38.477Z,101165.55
2023-05-29T01:08:07.966Z,101169.11
2023-05-29T01:10:38.824Z,101169.75
2023-05-29T01:13:16.346Z,101168.60
2023-05-29T01:15:59.842Z,101164.20
2023-05-29T01:18:31.237Z,101162.17
2023-05-29T01:21:21.284Z,101159.86
2023-05-29T01:24:10.413Z,101166.34
2023-05-29T01:27:15.576Z,101169.23
2023-05-29T01:29:44.865Z,101173.15
2023-05-29T01:32:13.650Z,101178.27
2023-05-29T01:34:42.168Z,101181.02
2023-05-29T01:37:10.525Z,101181.07
2023-05-29T01:39:38.909Z,101176.96
2023-05-29T01:42:07.676Z,101177.00
2023-05-29T01:44:39.255Z,101174.63
2023-05-29T01:47:08.761Z,101179.67
2023-05-29T01:49:38.568Z,101182.77
2023-05-29T01:52:07.420Z,101185.52
2023-05-29T01:54:35.764Z,101187.59
2023-05-29T01:57:07.312Z,101190.91
2023-05-29T01:59:37.104Z,101194.27
2023-05-29T02:02:13.072Z,101194.67
2023-05-29T02:04:42.021Z,101195.91
2023-05-29T02:07:13.496Z,101195.36
2023-05-29T02:09:42.646Z,101194.48
2023-05-29T02:12:10.693Z,101195.85
2023-05-29T02:14:41.569Z,101192.11
2023-05-29T02:17:10.564Z,101191.65
2023-05-29T02:19:38.955Z,101197.60
2023-05-29T02:22:07.813Z,101199.78
2023-05-29T02:24:36.536Z,101202.81
2023-05-29T02:27:05.316Z,101207.20
2023-05-29T02:29:34.038Z,101206.45
2023-05-29T02:32:03.098Z,101206.30
2023-05-29T02:34:35.604Z,101212.51
2023-05-29T02:37:04.196Z,101212.68
2023-05-29T02:39:32.469Z,101216.06
2023-05-29T02:42:01.061Z,101218.58
2023-05-29T02:44:29.351Z,101218.17
2023-05-29T02:46:57.730Z,101217.61
2023-05-29T02:49:26.321Z,101222.80
2023-05-29T02:51:58.281Z,101219.61
2023-05-29T02:54:26.868Z,101223.30
2023-05-29T02:56:55.374Z,101227.16
2023-05-29T02:59:23.751Z,101226.77
2023-05-29T03:01:53.292Z,101223.52
2023-05-29T03:04:21.940Z,101223.70
2023-05-29T03:06:50.492Z,101227.90
2023-05-29T03:09:19.121Z,101230.80
2023-05-29T03:11:48.901Z,101229.92
2023-05-29T03:14:17.267Z,101229.89
2023-05-29T03:16:46.900Z,101228.67
2023-05-29T03:19:15.125Z,101229.55
2023-05-29T03:21:43.923Z,101229.38
2023-05-29T03:24:14.620Z,101231.65
2023-05-29T03:26:43.415Z,101231.48
2023-05-29T03:29:11.998Z,101234.64
2023-05-29T03:31:40.335Z,101236.55
2023-05-29T03:34:08.767Z,101240.36
2023-05-29T03:36:40.896Z,101239.60
2023-05-29T03:39:09.565Z,101243.48
2023-05-29T03:41:38.154Z,101243.55
2023-05-29T03:44:07.465Z,101247.84
2023-05-29T03:46:36.996Z,101247.41
2023-05-29T03:49:08.674Z,101260.02
2023-05-29T03:51:37.729Z,101254.91
2023-05-29T03:54:06.231Z,101259.42
2023-05-29T03:56:36.541Z,101263.52
2023-05-29T03:59:06.125Z,101269.77
2023-05-29T04:01:35.871Z,101269.05
2023-05-29T04:04:04.362Z,101273.73
2023-05-29T04:06:33.469Z,101275.94
2023-05-29T04:09:02.252Z,101276.34
2023-05-29T04:11:31.267Z,101275.08
2023-05-29T04:13:59.427Z,101272.88
2023-05-29T04:16:32.077Z,101271.40
2023-05-29T04:19:02.083Z,101271.05
2023-05-29T04:21:34.002Z,101265.81
2023-05-29T04:24:02.587Z,101263.45
2023-05-29T04:26:34.004Z,101263.14
2023-05-29T04:29:04.803Z,101265.51
2023-05-29T04:31:34.356Z,101266.06
2023-05-29T04:34:05.788Z,101265.92
2023-05-29T04:36:34.760Z,101268.74
2023-05-29T04:39:08.967Z,101270.29
2023-05-29T04:41:39.489Z,101270.23
2023-05-29T04:44:12.865Z,101270.65
2023-05-29T04:46:48.585Z,101271.21
2023-05-29T04:49:17.658Z,101272.52
2023-05-29T04:51:48.219Z,101267.98
2023-05-29T04:54:17.724Z,101269.98
2023-05-29T04:56:47.789Z,101270.61
2023-05-29T04:59:16.606Z,101273.63
2023-05-29T05:01:45.341Z,101273.55
2023-05-29T05:04:13.835Z,101279.92
2023-05-29T05:06:42.371Z,101283.68
2023-05-29T05:09:11.479Z,101284.77
2023-05-29T05:11:44.372Z,101283.95
2023-05-29T05:14:13.693Z,101293.88
2023-05-29T05:16:42.617Z,101296.08
2023-05-29T05:19:12.481Z,101294.65
2023-05-29T05:21:42.023Z,101294.01
2023-05-29T05:24:10.480Z,101291.44
2023-05-29T05:26:41.554Z,101296.95
2023-05-29T05:29:09.912Z,101295.64
2023-05-29T05:31:39.478Z,101295.47
2023-05-29T05:34:08.008Z,101294.05
2023-05-29T05:36:38.038Z,101292.61
2023-05-29T05:39:11.013Z,101291.12
2023-05-29T05:41:39.716Z,101292.66
2023-05-29T05:44:08.311Z,101285.56
2023-05-29T05:46:46.310Z,101284.62
2023-05-29T05:49:14.698Z,101284.27
2023-05-29T05:51:45.968Z,101283.88
2023-05-29T05:54:14.225Z,101283.46
2023-05-29T05:56:48.652Z,101280.66
2023-05-29T05:59:17.137Z,101276.68
2023-05-29T06:01:45.648Z,101276.95
2023-05-29T06:04:15.968Z,101275.58
2023-05-29T06:06:47.908Z,101274.05
2023-05-29T06:09:16.183Z,101272.08
2023-05-29T06:11:46.427Z,101266.88
2023-05-29T06:14:15.798Z,101266.35
2023-05-29T06:16:44.770Z,101263.40
2023-05-29T06:19:13.631Z,101262.09
2023-05-29T06:21:59.712Z,101258.21
2023-05-29T06:24:29.234Z,101257.19
2023-05-29T06:26:58.159Z,101259.45
2023-05-29T06:29:27.335Z,101263.52
2023-05-29T06:31:55.745Z,101263.38
2023-05-29T06:34:24.395Z,101265.68
2023-05-29T06:36:52.657Z,101265.25
2023-05-29T06:39:25.952Z,101263.05
2023-05-29T06:41:57.336Z,101262.37
2023-05-29T06:44:25.773Z,101260.80
2023-05-29T06:46:56.793Z,101259.00
2023-05-29T06:49:25.380Z,101258.88
2023-05-29T06:51:54.344Z,101259.20
2023-05-29T06:54:27.129Z,101259.31
2023-05-29T06:57:09.850Z,101258.74
2023-05-29T06:59:39.884Z,101262.05
2023-05-29T07:02:08.589Z,101256.90
2023-05-29T07:04:37.174Z,101260.81
2023-05-29T07:07:06.861Z,101258.46
2023-05-29T07:09:36.259Z,101256.77
2023-05-29T07:12:05.362Z,101251.20
2023-05-29T07:14:33.755Z,101248.54
2023-05-29T07:17:03.295Z,101249.54
2023-05-29T07:19:33.683Z,101248.26
2023-05-29T07:22:03.101Z,101245.53
2023-05-29T07:24:31.380Z,101241.38
2023-05-29T07:26:59.665Z,101244.86
2023-05-29T07:29:28.879Z,101245.86
2023-05-29T07:31:57.200Z,101242.17
2023-05-29T07:34:25.536Z,101242.94
2023-05-29T07:37:03.786Z,101243.52
2023-05-29T07:39:35.095Z,101240.70
2023-05-29T07:42:07.848Z,101238.23
2023-05-29T07:44:37.506Z,101232.35
2023-05-29T07:47:06.916Z,101230.83
2023-05-29T07:49:42.649Z,101226.48
2023-05-29T07:52:12.677Z,101224.77
2023-05-29T07:54:41.075Z,101225.83
2023-05-29T07:57:11.047Z,101223.20
2023-05-29T07:59:44.314Z,101222.70
2023-05-29T08:02:13.377Z,101219.44
2023-05-29T08:05:01.052Z,101215.95
2023-05-29T08:07:30.190Z,101214.84
2023-05-29T08:09:59.187Z,101214.48
2023-05-29T08:12:27.814Z,101214.49
2023-05-29T08:14:58.830Z,101206.52
2023-05-29T08:17:27.440Z,101209.65
2023-05-29T08:19:55.833Z,101208.98
2023-05-29T08:22:29.702Z,101208.41
2023-05-29T08:24:58.008Z,101199.33
2023-05-29T08:27:26.798Z,101198.82
2023-05-29T08:29:56.633Z,101192.98
2023-05-29T08:32:25.017Z,101199.20
2023-05-29T08:34:53.383Z,101197.41
2023-05-29T08:37:22.014Z,101194.30
2023-05-29T08:39:50.256Z,101184.96
2023-05-29T08:42:35.058Z,101182.34
2023-05-29T08:45:05.727Z,101179.51
2023-05-29T08:47:35.202Z,101176.59
2023-05-29T08:50:04.297Z,101175.58
2023-05-29T08:52:39.309Z,101174.98
2023-05-29T08:55:08.546Z,101178.80
2023-05-29T08:57:39.151Z,101179.47
2023-05-29T09:00:13.362Z,101180.54
2023-05-29T09:02:41.973Z,101171.27
2023-05-29T09:05:11.396Z,101173.11
2023-05-29T09:07:43.896Z,101176.21
2023-05-29T09:10:17.083Z,101169.21
2023-05-29T09:12:47.963Z,101168.27
2023-05-29T09:15:21.469Z,101166.23
2023-05-29T09:17:56.996Z,101170.01
2023-05-29T09:20:26.216Z,101165.81
2023-05-29T09:22:57.161Z,101160.98
2023-05-29T09:25:28.409Z,101158.34
2023-05-29T09:28:02.042Z,101155.63
2023-05-29T09:30:48.357Z,101153.98
2023-05-29T09:33:17.949Z,101157.05
2023-05-29T09:35:48.452Z,101155.02
2023-05-29T09:40:54.024Z,101157.83
2023-05-29T09:43:25.076Z,101158.47
2023-05-29T09:45:53.447Z,101151.71
2023-05-29T09:48:25.507Z,101144.95
2023-05-29T09:50:55.125Z,101147.28
2023-05-29T09:53:26.598Z,101141.11
2023-05-29T09:55:57.353Z,101144.45
2023-05-29T09:58:26.638Z,101135.79
2023-05-29T10:00:55.164Z,101140.31
2023-05-29T10:03:25.687Z,101135.50
2023-05-29T10:05:59.783Z,101137.61
2023-05-29T10:08:30.760Z,101130.77
2023-05-29T10:11:05.533Z,101132.84
2023-05-29T10:13:39.561Z,101132.24
2023-05-29T10:16:12.281Z,101132.61
2023-05-29T10:18:44.564Z,101130.64
2023-05-29T10:21:15.263Z,101133.21
2023-05-29T10:23:48.803Z,101130.88
2023-05-29T10:26:22.644Z,101126.95
2023-05-29T10:29:12.551Z,101115.73
2023-05-29T10:32:05.585Z,101113.76
2023-05-29T10:34:45.429Z,101111.71
2023-05-29T10:37:39.004Z,101109.70
2023-05-29T10:40:14.154Z,101100.14
2023-05-29T10:42:51.289Z,101101.17
2023-05-29T10:45:37.308Z,101103.52
2023-05-29T10:48:08.665Z,101102.31
2023-05-29T10:50:38.266Z,101098.92
2023-05-29T10:53:23.955Z,101103.98
2023-05-29T10:55:53.084Z,101100.75
2023-05-29T10:58:27.098Z,101098.15
2023-05-29T11:00:57.742Z,101092.84
2023-05-29T11:03:31.939Z,101089.55
2023-05-29T11:06:07.412Z,101084.30
2023-05-29T11:08:37.188Z,101082.13
2023-05-29T11:11:07.924Z,101079.72
2023-05-29T11:13:37.801Z,101077.77
2023-05-29T11:16:18.909Z,101076.91
2023-05-29T11:18:53.140Z,101078.14
2023-05-29T11:21:40.191Z,101082.68
2023-05-29T11:24:08.737Z,101080.19
2023-05-29T11:26:39.081Z,101074.09
2023-05-29T11:29:11.953Z,101067.95
2023-05-29T11:31:41.951Z,101062.69
2023-05-29T11:34:15.187Z,101054.23
2023-05-29T11:36:44.718Z,101058.13
2023-05-29T11:39:13.583Z,101057.91
2023-05-29T11:41:42.118Z,101052.14
2023-05-29T11:44:14.723Z,101057.70
2023-05-29T11:46:43.627Z,101057.93
2023-05-29T11:49:12.283Z,101052.57
2023-05-29T11:51:43.328Z,101051.09
2023-05-29T11:54:13.298Z,101047.63
2023-05-29T11:56:42.263Z,101042.16
2023-05-29T11:59:12.651Z,101040.91
2023-05-29T12:01:41.190Z,101034.92
2023-05-29T12:04:17.058Z,101033.67
2023-05-29T12:06:45.951Z,101031.95
2023-05-29T12:09:28.179Z,101033.65
2023-05-29T12:12:07.064Z,101033.71
2023-05-29T12:14:35.443Z,101030.20
2023-05-29T12:17:04.779Z,101021.50
2023-05-29T12:19:33.220Z,101018.81
2023-05-29T12:22:01.748Z,101017.41
2023-05-29T12:24:41.808Z,101011.20
2023-05-29T12:27:11.189Z,101003.61
2023-05-29T12:29:41.108Z,100997.54
2023-05-29T12:32:13.075Z,100995.64
2023-05-29T12:34:43.072Z,100998.40
2023-05-29T12:37:15.348Z,100996.04
2023-05-29T12:39:43.663Z,100995.87
2023-05-29T12:42:13.228Z,100994.27
2023-05-29T12:44:43.386Z,100996.08
2023-05-29T12:47:15.302Z,100991.86
2023-05-29T12:49:43.947Z,100990.32
2023-05-29T12:52:12.987Z,100990.58
2023-05-29T12:54:41.348Z,100987.06
2023-05-29T12:57:09.719Z,100980.30
2023-05-29T12:59:38.094Z,100979.11
2023-05-29T13:02:09.190Z,100979.58
2023-05-29T13:04:37.623Z,100979.33
2023-05-29T13:07:06.669Z,100973.88
2023-05-29T13:09:35.132Z,100975.44
2023-05-29T13:12:06.921Z,100976.66
2023-05-29T13:14:35.392Z,100977.98
2023-05-29T13:17:03.786Z,100974.00
2023-05-29T13:19:32.028Z,100975.15
2023-05-29T13:22:00.422Z,100976.93
2023-05-29T13:24:28.797Z,100979.23
2023-05-29T13:26:57.107Z,100974.06
2023-05-29T13:29:25.281Z,100970.27
2023-05-29T13:31:54.078Z,100968.03
2023-05-29T13:34:24.930Z,100968.25
2023-05-29T13:36:53.278Z,100966.42
2023-05-29T13:39:21.488Z,100965.23
2023-05-29T13:41:49.845Z,100961.63
2023-05-29T13:44:18.532Z,100959.70
2023-05-29T13:46:46.704Z,100959.55
2023-05-29T13:49:14.994Z,100953.05
2023-05-29T13:51:43.180Z,100951.52
2023-05-29T13:54:14.419Z,100948.99
2023-05-29T13:56:47.758Z,100947.31
2023-05-29T13:59:18.833Z,100944.64
2023-05-29T14:01:49.668Z,100943.11
2023-05-29T14:04:18.071Z,100943.40
2023-05-29T14:06:46.944Z,100945.39
2023-05-29T14:09:15.548Z,100945.34
2023-05-29T14:11:43.964Z,100940.59
2023-05-29T14:14:12.343Z,100940.71
2023-05-29T14:16:40.832Z,100938.34
2023-05-29T14:19:09.731Z,100935.41
2023-05-29T14:21:38.219Z,100936.73
2023-05-29T14:24:06.859Z,100935.45
2023-05-29T14:26:35.104Z,100933.64
2023-05-29T14:29:13.407Z,100927.02
2023-05-29T14:31:44.921Z,100924.90
2023-05-29T14:34:14.023Z,100922.18
2023-05-29T14:36:45.912Z,100920.77
2023-05-29T14:39:14.337Z,100921.08
2023-05-29T14:41:42.584Z,100919.73
2023-05-29T14:44:12.917Z,100924.89
2023-05-29T14:46:43.501Z,100924.64
2023-05-29T14:49:12.242Z,100926.77
2023-05-29T14:51:40.728Z,100920.80
2023-05-29T14:54:10.527Z,100911.52
2023-05-29T14:56:40.924Z,100910.84
2023-05-29T14:59:09.466Z,100909.23
2023-05-29T15:01:37.747Z,100909.52
2023-05-29T15:04:07.102Z,100902.98
2023-05-29T15:06:37.471Z,100904.27
2023-05-29T15:09:05.976Z,100906.50
2023-05-29T15:11:34.356Z,100903.23
2023-05-29T15:14:02.741Z,100898.97
2023-05-29T15:16:31.047Z,100899.33
2023-05-29T15:18:59.389Z,100896.85
2023-05-29T15:21:27.893Z,100898.79
2023-05-29T15:23:56.175Z,100898.84
2023-05-29T15:26:25.081Z,100899.35
2023-05-29T15:28:55.623Z,100899.91
2023-05-29T15:31:24.051Z,100901.45
2023-05-29T15:33:54.363Z,100901.63
2023-05-29T15:36:22.654Z,100899.42
2023-05-29T15:38:51.633Z,100899.52
2023-05-29T15:41:21.144Z,100897.11
2023-05-29T15:43:49.496Z,100903.36
2023-05-29T15:46:17.726Z,100898.37
2023-05-29T15:48:45.980Z,100899.38
2023-05-29T15:51:14.652Z,100899.38
2023-05-29T15:53:42.928Z,100902.13
2023-05-29T15:56:11.438Z,100906.05
2023-05-29T15:58:39.698Z,100902.75
2023-05-29T16:01:08.082Z,100903.84
2023-05-29T16:03:36.512Z,100907.61
2023-05-29T16:06:05.101Z,100904.52
2023-05-29T16:08:33.448Z,100900.86
2023-05-29T16:11:02.602Z,100899.29
2023-05-29T16:13:36.362Z,100896.42
2023-05-29T16:16:04.606Z,100894.58
2023-05-29T16:18:33.093Z,100896.35
2023-05-29T16:21:04.196Z,100895.15
2023-05-29T16:23:33.369Z,100895.73
2023-05-29T16:26:02.345Z,100899.50
2023-05-29T16:28:30.662Z,100896.65
2023-05-29T16:30:59.759Z,100894.88
2023-05-29T16:33:28.089Z,100898.22
2023-05-29T16:35:56.695Z,100894.56
2023-05-29T16:38:25.149Z,100894.96
2023-05-29T16:40:53.396Z,100893.69
2023-05-29T16:43:22.577Z,100897.25
2023-05-29T16:45:51.825Z,100894.46
2023-05-29T16:48:20.500Z,100895.40
2023-05-29T16:50:49.100Z,100901.19
2023-05-29T16:53:17.417Z,100899.55
2023-05-29T16:55:46.570Z,100901.21
2023-05-29T16:58:15.263Z,100898.17
2023-05-29T17:00:45.220Z,100898.70
2023-05-29T17:03:14.740Z,100898.54
2023-05-29T17:05:43.174Z,100897.59
2023-05-29T17:08:12.101Z,100898.41
2023-05-29T17:10:41.607Z,100902.47
2023-05-29T17:13:09.964Z,100903.41
2023-05-29T17:15:38.250Z,100899.58
2023-05-29T17:18:07.176Z,100901.65
2023-05-29T17:20:36.893Z,100901.68
2023-05-29T17:23:05.785Z,100901.01
2023-05-29T17:25:33.967Z,100906.81
2023-05-29T17:28:02.352Z,100907.72
2023-05-29T17:30:33.276Z,100908.42
2023-05-29T17:33:04.212Z,100907.36
2023-05-29T17:35:34.562Z,100907.20
2023-05-29T17:38:03.323Z,100909.12
2023-05-29T17:40:32.129Z,100913.16
2023-05-29T17:43:00.518Z,100915.88
2023-05-29T17:45:28.993Z,100917.02
2023-05-29T17:47:58.345Z,100919.35
2023-05-29T17:50:27.094Z,100918.44
2023-05-29T17:52:56.290Z,100919.81
2023-05-29T17:55:25.390Z,100924.09
2023-05-29T17:57:53.883Z,100927.81
2023-05-29T18:00:22.199Z,100927.15
2023-05-29T18:02:50.709Z,100926.17
2023-05-29T18:05:19.068Z,100931.35
2023-05-29T18:07:48.531Z,100930.54
2023-05-29T18:10:22.072Z,100934.54
2023-05-29T18:12:54.422Z,100939.20
2023-05-29T18:15:24.140Z,100939.02
2023-05-29T18:17:52.940Z,100942.60
2023-05-29T18:20:21.878Z,100946.33
2023-05-29T18:22:49.991Z,100941.54
2023-05-29T18:25:18.721Z,100944.73
2023-05-29T18:27:47.955Z,100943.73
2023-05-29T18:30:16.697Z,100948.05
2023-05-29T18:32:45.101Z,100949.38
2023-05-29T18:35:14.902Z,100954.86
2023-05-29T18:37:43.178Z,100954.70
2023-05-29T18:40:12.661Z,100955.41
2023-05-29T18:42:41.728Z,100957.42
2023-05-29T18:45:10.761Z,100961.16
2023-05-29T18:47:39.606Z,100957.54
2023-05-29T18:50:08.271Z,100968.04
2023-05-29T18:52:36.548Z,100972.98
2023-05-29T18:55:05.168Z,100979.10
2023-05-29T18:57:33.522Z,100985.73
2023-05-29T19:00:01.804Z,100988.11
2023-05-29T19:02:30.215Z,100992.04
2023-05-29T19:04:59.734Z,100992.00
2023-05-29T19:07:28.409Z,100998.45
2023-05-29T19:09:56.678Z,100994.38
2023-05-29T19:12:25.064Z,100995.00
2023-05-29T19:14:53.286Z,100994.02
2023-05-29T19:17:21.938Z,100992.98
2023-05-29T19:19:50.697Z,100996.40
2023-05-29T19:22:19.051Z,100995.15
2023-05-29T19:24:48.774Z,100999.92
2023-05-29T19:27:17.116Z,101004.24
2023-05-29T19:29:46.237Z,100999.08
2023-05-29T19:32:19.099Z,101001.02
2023-05-29T19:34:48.465Z,101001.94
2023-05-29T19:37:17.204Z,100999.25
2023-05-29T19:39:46.814Z,100998.39
2023-05-29T19:42:15.923Z,100993.67
2023-05-29T19:44:44.293Z,100996.02
2023-05-29T19:47:12.770Z,100999.68
2023-05-29T19:49:41.885Z,101001.55
2023-05-29T19:52:10.667Z,100999.07
2023-05-29T19:54:39.100Z,100995.96
2023-05-29T19:57:08.762Z,100993.89
2023-05-29T19:59:38.080Z,100989.29
2023-05-29T20:02:07.080Z,100989.77
2023-05-29T20:04:36.798Z,100989.06
2023-05-29T20:07:07.060Z,100989.09
2023-05-29T20:09:35.924Z,100988.95
2023-05-29T20:12:04.608Z,100993.48
2023-05-29T20:14:33.303Z,100991.23
2023-05-29T20:17:01.747Z,100987.40
2023-05-29T20:19:29.961Z,100984.08
2023-05-29T20:21:58.248Z,100985.00
2023-05-29T20:24:26.902Z,100985.28
2023-05-29T20:26:57.859Z,100988.33
2023-05-29T20:29:26.752Z,100988.14
2023-05-29T20:31:58.216Z,100990.04
2023-05-29T20:34:26.631Z,100987.84
2023-05-29T20:36:55.213Z,100989.00
2023-05-29T20:39:27.075Z,100990.88
2023-05-29T20:41:59.774Z,100989.25
2023-05-29T20:44:33.046Z,100989.65
2023-05-29T20:47:03.997Z,100984.00
2023-05-29T20:49:32.206Z,100982.50
2023-05-29T20:52:00.675Z,100981.45
2023-05-29T20:54:30.203Z,100979.08
2023-05-29T20:56:59.034Z,100980.25
2023-05-29T20:59:28.716Z,100975.38
2023-05-29T21:01:58.336Z,100978.08
2023-05-29T21:04:27.394Z,100973.56
2023-05-29T21:06:56.091Z,100976.04
2023-05-29T21:09:24.523Z,100977.55
2023-05-29T21:11:53.040Z,100977.17
2023-05-29T21:14:21.682Z,100973.48
2023-05-29T21:16:50.039Z,100973.89
2023-05-29T21:19:18.174Z,100974.06
2023-05-29T21:21:46.922Z,100967.64
2023-05-29T21:24:16.070Z,100968.45
2023-05-29T21:26:44.292Z,100967.93
2023-05-29T21:29:13.081Z,100969.69
2023-05-29T21:31:42.203Z,100972.11
2023-05-29T21:34:10.565Z,100972.83
2023-05-29T21:36:39.310Z,100970.42
2023-05-29T21:39:08.564Z,100970.48
2023-05-29T21:41:37.553Z,100971.87
2023-05-29T21:44:09.102Z,100973.80
2023-05-29T21:46:39.133Z,100971.97
2023-05-29T21:49:07.525Z,100977.36
2023-05-29T21:51:35.767Z,100978.11
2023-05-29T21:54:04.394Z,100982.65
2023-05-29T21:56:32.548Z,100984.54
2023-05-29T21:59:00.959Z,100983.10
2023-05-29T22:01:29.317Z,100980.65
2023-05-29T22:03:57.654Z,100979.73
2023-05-29T22:06:25.697Z,100977.98
2023-05-29T22:08:53.987Z,100976.64
2023-05-29T22:11:23.695Z,100978.20
2023-05-29T22:13:51.978Z,100974.80
2023-05-29T22:16:20.313Z,100975.65
2023-05-29T22:19:03.972Z,100976.77
2023-05-29T22:21:33.588Z,100978.52
2023-05-29T22:24:03.226Z,100976.64
2023-05-29T22:26:33.108Z,100973.52
2023-05-29T22:29:01.689Z,100976.70
2023-05-29T22:31:30.648Z,100975.84
2023-05-29T22:33:59.324Z,100974.36
2023-05-29T22:36:29.252Z,100978.39
2023-05-29T22:38:57.548Z,100983.05
2023-05-29T22:41:26.126Z,100982.62
2023-05-29T22:43:54.682Z,100981.45
2023-05-29T22:46:24.692Z,100976.55
2023-05-29T22:48:54.501Z,100977.53
2023-05-29T22:51:26.511Z,100978.96
2023-05-29T22:53:55.504Z,100979.39
2023-05-29T22:56:23.792Z,100974.30
2023-05-29T22:58:51.997Z,100975.66
2023-05-29T23:01:20.356Z,100978.48
2023-05-29T23:03:49.028Z,100979.23
2023-05-29T23:06:18.152Z,100982.77
2023-05-29T23:08:46.724Z,100986.52
2023-05-29T23:11:16.059Z,100987.02
2023-05-29T23:13:44.455Z,100989.02
2023-05-29T23:16:13.743Z,100986.27
2023-05-29T23:18:42.045Z,100985.77
2023-05-29T23:21:10.320Z,100990.89
2023-05-29T23:23:38.470Z,100990.99
2023-05-29T23:26:06.668Z,100989.40
2023-05-29T23:28:34.947Z,100993.41
2023-05-29T23:31:03.939Z,100993.42
2023-05-29T23:33:32.565Z,100989.92
2023-05-29T23:36:01.170Z,100990.59
2023-05-29T23:38:29.607Z,100987.42
2023-05-29T23:40:58.134Z,100987.71
2023-05-29T23:43:27.023Z,100986.23
2023-05-29T23:45:55.676Z,100984.60
2023-05-29T23:48:24.457Z,100986.37
2023-05-29T23:50:53.021Z,100986.04
2023-05-29T23:53:21.438Z,100987.95
2023-05-29T23:55:50.821Z,100988.78
2023-05-29T23:58:19.546Z,100986.44
